METAR Data
IDs: Format: Raw Decoded Include TAF

Data at: 0108 UTC 06 Dec 2019

KCEU 060054Z AUTO 00000KT 10SM CLR 10/M03 A3016 RMK AO2 SLP213 T01001028
KCEU 052354Z AUTO 00000KT 10SM CLR 13/M05 A3015 RMK AO2 SLP208 T01331050 10172 20128 53015
KCEU 052254Z AUTO 00000KT 10SM CLR 14/M05 A3013 RMK AO2 SLP201 T01391050
KCEU 052154Z AUTO 00000KT 10SM CLR 16/M04 A3012 RMK AO2 SLP195 T01561044
KCEU 052054Z AUTO VRB04KT 10SM CLR 17/M05 A3010 RMK AO2 SLP192 T01671050 55000
KCEU 051954Z AUTO VRB04KT 10SM CLR 17/M04 A3009 RMK AO2 SLP188 T01671044
KCEU 051854Z AUTO VRB04KT 10SM CLR 16/M06 A3009 RMK AO2 SLP187 T01561056
KCEU 051754Z AUTO 00000KT 10SM CLR 17/M06 A3010 RMK AO2 SLP191 T01671056 10167 20061 58000
KCEU 051654Z AUTO 10004KT 10SM CLR 15/M06 A3012 RMK AO2 SLP198 T01501056
KCEU 051554Z AUTO 35004KT 10SM CLR 14/M05 A3013 RMK AO2 SLP199 T01441050
KCEU 051454Z AUTO 26008KT 10SM CLR 12/M04 A3011 RMK AO2 SLP193 T01171044 53031
KCEU 051354Z AUTO 26006KT 10SM CLR 09/M04 A3007 RMK AO2 SLP181 T00941039
KCEU 051254Z AUTO 25007KT 10SM CLR 07/M04 A3004 RMK AO2 SLP172 T00721044
KCEU 051154Z AUTO 27008KT 10SM CLR 07/M04 A3001 RMK AO2 SLP162 T00671039 10100 20061 51018
KCEU 051054Z AUTO 24004KT 10SM CLR 07/M04 A2999 RMK AO2 SLP154 T00671044
KCEU 050954Z AUTO 29008KT 10SM CLR 07/M05 A2998 RMK AO2 SLP150 T00721050
KCEU 050854Z AUTO 23004KT 10SM CLR 07/M04 A2996 RMK AO2 SLP142 T00721039 53024
KCEU 050754Z AUTO 21004KT 10SM CLR 07/M03 A2993 RMK AO2 SLP133 T00721033
KCEU 050654Z AUTO 28014KT 10SM CLR 10/M04 A2989 RMK AO2 SLP119 T01001044
KCEU 050554Z AUTO 28011KT 10SM CLR 09/M04 A2988 RMK AO2 SLP117 T00941044 10111 20078 51002
KCEU 050454Z AUTO 26008KT 10SM CLR 09/M04 A2988 RMK AO2 SLP117 T00941039 401610028
KCEU 050354Z AUTO 26011KT 10SM CLR 08/M03 A2988 RMK AO2 SLP118 T00831033
KCEU 050254Z AUTO 27010KT 10SM CLR 09/M03 A2988 RMK AO2 SLP117 T00891033 51007
KCEU 050154Z AUTO 25009KT 10SM CLR 11/M04 A2988 RMK AO2 SLP117 T01061039
KCEU 050054Z AUTO 26008KT 10SM CLR 10/M04 A2987 RMK AO2 SLP116 T01001039
KCEU 042354Z AUTO 27009KT 10SM CLR 11/M05 A2986 RMK AO2 SLP111 T01111050 10161 20111 51026
KCEU 042254Z AUTO 32006KT 10SM CLR 13/M06 A2984 RMK AO2 SLP102 T01281061
KCEU 042154Z AUTO 29012KT 10SM CLR 14/M04 A2981 RMK AO2 SLP092 T01391044
KCEU 042054Z AUTO 29011KT 10SM CLR 16/M04 A2978 RMK AO2 SLP083 T01561039 53003 $
KCEU 041954Z AUTO 27014G20KT 10SM CLR 16/M03 A2976 RMK AO2 SLP076 T01611033 $
KCEU 041854Z AUTO 25013G19KT 10SM CLR 16/M03 A2977 RMK AO2 SLP079 T01561033 $
KCEU 041754Z AUTO 28015G20KT 10SM CLR 14/M02 A2977 RMK AO2 SLP081 T01441022 10144 20033 58017 $
KCEU 041654Z AUTO 24009KT 10SM CLR 13/M01 A2980 RMK AO2 SLP090 T01281011 $
KCEU 041554Z AUTO 26011KT 10SM CLR 11/M02 A2982 RMK AO2 SLP097 T01061022 $
KCEU 041454Z AUTO 25008KT 10SM CLR 08/M03 A2982 RMK AO2 SLP099 T00781028 51013 $
KCEU 041354Z AUTO 25006KT 10SM CLR 06/M03 A2982 RMK AO2 SLP099 T00561028 $